sensor_id;sensor_type;location;lat;lon;timestamp;P1;durP1;ratioP1;P2;durP2;ratioP2
28086;SDS011;15392;48.912;8.380;2023-04-01T00:00:18;0.20;;;0.20;;
28086;SDS011;15392;48.912;8.380;2023-04-01T00:02:45;0.57;;;0.43;;
28086;SDS011;15392;48.912;8.380;2023-04-01T00:05:11;0.28;;;0.28;;
28086;SDS011;15392;48.912;8.380;2023-04-01T00:07:38;0.30;;;0.20;;
28086;SDS011;15392;48.912;8.380;2023-04-01T00:10:09;0.32;;;0.30;;
28086;SDS011;15392;48.912;8.380;2023-04-01T00:12:37;0.20;;;0.20;;
28086;SDS011;15392;48.912;8.380;2023-04-01T00:15:05;0.30;;;0.30;;
28086;SDS011;15392;48.912;8.380;2023-04-01T00:17:35;0.22;;;0.20;;
28086;SDS011;15392;48.912;8.380;2023-04-01T00:20:01;0.20;;;0.20;;
28086;SDS011;15392;48.912;8.380;2023-04-01T00:22:28;0.28;;;0.28;;
28086;SDS011;15392;48.912;8.380;2023-04-01T00:24:54;0.30;;;0.30;;
28086;SDS011;15392;48.912;8.380;2023-04-01T00:27:20;1.25;;;0.28;;
28086;SDS011;15392;48.912;8.380;2023-04-01T00:29:46;0.22;;;0.22;;
28086;SDS011;15392;48.912;8.380;2023-04-01T00:32:13;0.30;;;0.20;;
28086;SDS011;15392;48.912;8.380;2023-04-01T00:34:39;0.32;;;0.30;;
28086;SDS011;15392;48.912;8.380;2023-04-01T00:37:06;1.48;;;0.20;;
28086;SDS011;15392;48.912;8.380;2023-04-01T00:39:33;0.30;;;0.30;;
28086;SDS011;15392;48.912;8.380;2023-04-01T00:42:00;0.25;;;0.25;;
28086;SDS011;15392;48.912;8.380;2023-04-01T00:44:29;0.30;;;0.30;;
28086;SDS011;15392;48.912;8.380;2023-04-01T00:46:58;0.20;;;0.20;;
28086;SDS011;15392;48.912;8.380;2023-04-01T00:49:32;0.20;;;0.20;;
28086;SDS011;15392;48.912;8.380;2023-04-01T00:52:03;0.10;;;0.10;;
28086;SDS011;15392;48.912;8.380;2023-04-01T00:54:32;0.22;;;0.20;;
28086;SDS011;15392;48.912;8.380;2023-04-01T00:57:10;0.20;;;0.20;;
28086;SDS011;15392;48.912;8.380;2023-04-01T00:59:45;0.77;;;0.43;;
28086;SDS011;15392;48.912;8.380;2023-04-01T01:02:14;0.47;;;0.20;;
28086;SDS011;15392;48.912;8.380;2023-04-01T01:04:41;0.75;;;0.20;;
28086;SDS011;15392;48.912;8.380;2023-04-01T01:10:03;0.20;;;0.17;;
28086;SDS011;15392;48.912;8.380;2023-04-01T01:15:46;0.30;;;0.30;;
28086;SDS011;15392;48.912;8.380;2023-04-01T01:21:07;0.30;;;0.20;;
28086;SDS011;15392;48.912;8.380;2023-04-01T01:29:48;0.20;;;0.20;;
28086;SDS011;15392;48.912;8.380;2023-04-01T01:32:44;0.10;;;0.10;;
28086;SDS011;15392;48.912;8.380;2023-04-01T01:35:38;0.15;;;0.15;;
28086;SDS011;15392;48.912;8.380;2023-04-01T01:38:10;0.20;;;0.20;;
28086;SDS011;15392;48.912;8.380;2023-04-01T01:40:48;0.17;;;0.17;;
28086;SDS011;15392;48.912;8.380;2023-04-01T01:43:20;0.10;;;0.10;;
28086;SDS011;15392;48.912;8.380;2023-04-01T01:45:54;0.10;;;0.10;;
28086;SDS011;15392;48.912;8.380;2023-04-01T01:48:24;0.13;;;0.10;;
28086;SDS011;15392;48.912;8.380;2023-04-01T01:50:51;0.00;;;0.00;;
28086;SDS011;15392;48.912;8.380;2023-04-01T01:53:18;0.20;;;0.20;;
28086;SDS011;15392;48.912;8.380;2023-04-01T01:55:44;0.08;;;0.08;;
28086;SDS011;15392;48.912;8.380;2023-04-01T02:00:55;0.20;;;0.10;;
28086;SDS011;15392;48.912;8.380;2023-04-01T02:03:26;0.17;;;0.17;;
28086;SDS011;15392;48.912;8.380;2023-04-01T02:05:57;0.00;;;0.00;;
28086;SDS011;15392;48.912;8.380;2023-04-01T02:08:39;0.10;;;0.10;;
28086;SDS011;15392;48.912;8.380;2023-04-01T02:11:29;0.15;;;0.15;;
28086;SDS011;15392;48.912;8.380;2023-04-01T02:19:19;0.10;;;0.10;;
28086;SDS011;15392;48.912;8.380;2023-04-01T02:21:51;0.20;;;0.13;;
28086;SDS011;15392;48.912;8.380;2023-04-01T02:24:22;0.17;;;0.10;;
28086;SDS011;15392;48.912;8.380;2023-04-01T02:26:51;0.30;;;0.30;;
28086;SDS011;15392;48.912;8.380;2023-04-01T02:29:19;0.10;;;0.10;;
28086;SDS011;15392;48.912;8.380;2023-04-01T02:31:48;0.10;;;0.10;;
28086;SDS011;15392;48.912;8.380;2023-04-01T02:34:16;0.10;;;0.10;;
28086;SDS011;15392;48.912;8.380;2023-04-01T02:36:42;0.13;;;0.10;;
28086;SDS011;15392;48.912;8.380;2023-04-01T02:39:08;0.17;;;0.17;;
28086;SDS011;15392;48.912;8.380;2023-04-01T02:41:41;0.17;;;0.10;;
28086;SDS011;15392;48.912;8.380;2023-04-01T02:44:09;0.10;;;0.10;;
28086;SDS011;15392;48.912;8.380;2023-04-01T02:46:37;0.15;;;0.10;;
28086;SDS011;15392;48.912;8.380;2023-04-01T02:49:03;0.10;;;0.10;;
28086;SDS011;15392;48.912;8.380;2023-04-01T02:51:30;0.10;;;0.10;;
28086;SDS011;15392;48.912;8.380;2023-04-01T02:53:56;0.20;;;0.20;;
28086;SDS011;15392;48.912;8.380;2023-04-01T02:56:21;0.10;;;0.10;;
28086;SDS011;15392;48.912;8.380;2023-04-01T02:58:47;0.45;;;0.20;;
28086;SDS011;15392;48.912;8.380;2023-04-01T03:01:13;0.10;;;0.10;;
28086;SDS011;15392;48.912;8.380;2023-04-01T03:03:39;0.20;;;0.20;;
28086;SDS011;15392;48.912;8.380;2023-04-01T03:06:10;0.10;;;0.10;;
28086;SDS011;15392;48.912;8.380;2023-04-01T03:08:38;0.35;;;0.20;;
28086;SDS011;15392;48.912;8.380;2023-04-01T03:11:04;0.05;;;0.05;;
28086;SDS011;15392;48.912;8.380;2023-04-01T03:13:31;0.63;;;0.15;;
28086;SDS011;15392;48.912;8.380;2023-04-01T03:15:57;0.10;;;0.08;;
28086;SDS011;15392;48.912;8.380;2023-04-01T03:18:22;0.10;;;0.10;;
28086;SDS011;15392;48.912;8.380;2023-04-01T03:20:48;0.10;;;0.10;;
28086;SDS011;15392;48.912;8.380;2023-04-01T03:23:14;0.10;;;0.10;;
28086;SDS011;15392;48.912;8.380;2023-04-01T03:25:42;0.10;;;0.10;;
28086;SDS011;15392;48.912;8.380;2023-04-01T03:28:08;0.08;;;0.05;;
28086;SDS011;15392;48.912;8.380;2023-04-01T03:30:34;0.13;;;0.13;;
28086;SDS011;15392;48.912;8.380;2023-04-01T03:33:00;0.10;;;0.10;;
28086;SDS011;15392;48.912;8.380;2023-04-01T03:35:26;0.10;;;0.10;;
28086;SDS011;15392;48.912;8.380;2023-04-01T03:37:52;0.13;;;0.13;;
28086;SDS011;15392;48.912;8.380;2023-04-01T03:40:19;0.20;;;0.20;;
28086;SDS011;15392;48.912;8.380;2023-04-01T03:42:46;0.10;;;0.10;;
28086;SDS011;15392;48.912;8.380;2023-04-01T03:45:12;0.30;;;0.30;;
28086;SDS011;15392;48.912;8.380;2023-04-01T03:47:38;0.20;;;0.20;;
28086;SDS011;15392;48.912;8.380;2023-04-01T03:50:05;0.15;;;0.13;;
28086;SDS011;15392;48.912;8.380;2023-04-01T03:52:32;0.20;;;0.20;;
28086;SDS011;15392;48.912;8.380;2023-04-01T03:54:58;0.20;;;0.20;;
28086;SDS011;15392;48.912;8.380;2023-04-01T03:57:25;0.32;;;0.20;;
28086;SDS011;15392;48.912;8.380;2023-04-01T03:59:51;0.30;;;0.30;;
28086;SDS011;15392;48.912;8.380;2023-04-01T04:02:17;0.20;;;0.20;;
28086;SDS011;15392;48.912;8.380;2023-04-01T04:04:42;0.20;;;0.20;;
28086;SDS011;15392;48.912;8.380;2023-04-01T04:07:08;0.47;;;0.30;;
28086;SDS011;15392;48.912;8.380;2023-04-01T04:09:34;0.30;;;0.30;;
28086;SDS011;15392;48.912;8.380;2023-04-01T04:12:00;0.28;;;0.28;;
28086;SDS011;15392;48.912;8.380;2023-04-01T04:14:26;0.30;;;0.20;;
28086;SDS011;15392;48.912;8.380;2023-04-01T04:16:52;0.30;;;0.30;;
28086;SDS011;15392;48.912;8.380;2023-04-01T04:19:17;0.50;;;0.50;;
28086;SDS011;15392;48.912;8.380;2023-04-01T04:21:43;0.40;;;0.25;;
28086;SDS011;15392;48.912;8.380;2023-04-01T04:24:09;0.30;;;0.30;;
28086;SDS011;15392;48.912;8.380;2023-04-01T04:26:35;0.30;;;0.30;;
28086;SDS011;15392;48.912;8.380;2023-04-01T04:29:01;0.20;;;0.20;;
28086;SDS011;15392;48.912;8.380;2023-04-01T04:31:27;0.30;;;0.30;;
28086;SDS011;15392;48.912;8.380;2023-04-01T04:33:53;0.43;;;0.40;;
28086;SDS011;15392;48.912;8.380;2023-04-01T04:36:19;0.40;;;0.40;;
28086;SDS011;15392;48.912;8.380;2023-04-01T04:38:46;0.38;;;0.30;;
28086;SDS011;15392;48.912;8.380;2023-04-01T04:41:13;0.50;;;0.50;;
28086;SDS011;15392;48.912;8.380;2023-04-01T04:43:47;0.70;;;0.70;;
28086;SDS011;15392;48.912;8.380;2023-04-01T04:46:19;0.60;;;0.60;;
28086;SDS011;15392;48.912;8.380;2023-04-01T04:48:46;0.63;;;0.63;;
28086;SDS011;15392;48.912;8.380;2023-04-01T04:51:12;0.90;;;0.50;;
28086;SDS011;15392;48.912;8.380;2023-04-01T04:53:43;0.60;;;0.60;;
28086;SDS011;15392;48.912;8.380;2023-04-01T04:56:09;0.50;;;0.50;;
28086;SDS011;15392;48.912;8.380;2023-04-01T04:58:37;0.40;;;0.40;;
28086;SDS011;15392;48.912;8.380;2023-04-01T05:01:08;0.30;;;0.30;;
28086;SDS011;15392;48.912;8.380;2023-04-01T05:03:36;0.20;;;0.20;;
28086;SDS011;15392;48.912;8.380;2023-04-01T05:06:03;0.32;;;0.30;;
28086;SDS011;15392;48.912;8.380;2023-04-01T05:08:30;0.38;;;0.20;;
28086;SDS011;15392;48.912;8.380;2023-04-01T05:10:55;0.30;;;0.30;;
28086;SDS011;15392;48.912;8.380;2023-04-01T05:13:21;0.25;;;0.20;;
28086;SDS011;15392;48.912;8.380;2023-04-01T05:15:47;0.38;;;0.38;;
28086;SDS011;15392;48.912;8.380;2023-04-01T05:18:13;0.22;;;0.22;;
28086;SDS011;15392;48.912;8.380;2023-04-01T05:20:38;0.20;;;0.20;;
28086;SDS011;15392;48.912;8.380;2023-04-01T05:23:04;0.28;;;0.20;;
28086;SDS011;15392;48.912;8.380;2023-04-01T05:25:30;0.13;;;0.10;;
28086;SDS011;15392;48.912;8.380;2023-04-01T05:27:55;0.40;;;0.40;;
28086;SDS011;15392;48.912;8.380;2023-04-01T05:30:21;0.20;;;0.20;;
28086;SDS011;15392;48.912;8.380;2023-04-01T05:32:47;0.10;;;0.10;;
28086;SDS011;15392;48.912;8.380;2023-04-01T05:35:12;0.30;;;0.30;;
28086;SDS011;15392;48.912;8.380;2023-04-01T05:37:38;0.85;;;0.20;;
28086;SDS011;15392;48.912;8.380;2023-04-01T05:40:04;0.20;;;0.20;;
28086;SDS011;15392;48.912;8.380;2023-04-01T05:42:31;0.20;;;0.20;;
28086;SDS011;15392;48.912;8.380;2023-04-01T05:44:57;0.10;;;0.10;;
28086;SDS011;15392;48.912;8.380;2023-04-01T05:47:22;0.15;;;0.10;;
28086;SDS011;15392;48.912;8.380;2023-04-01T05:49:48;0.17;;;0.10;;
28086;SDS011;15392;48.912;8.380;2023-04-01T05:52:14;0.10;;;0.10;;
28086;SDS011;15392;48.912;8.380;2023-04-01T05:54:40;0.20;;;0.10;;
28086;SDS011;15392;48.912;8.380;2023-04-01T05:57:06;0.30;;;0.30;;
28086;SDS011;15392;48.912;8.380;2023-04-01T05:59:32;0.10;;;0.10;;
28086;SDS011;15392;48.912;8.380;2023-04-01T06:01:59;0.15;;;0.10;;
28086;SDS011;15392;48.912;8.380;2023-04-01T06:04:26;0.20;;;0.20;;
28086;SDS011;15392;48.912;8.380;2023-04-01T06:06:59;0.10;;;0.10;;
28086;SDS011;15392;48.912;8.380;2023-04-01T06:09:26;0.20;;;0.20;;
28086;SDS011;15392;48.912;8.380;2023-04-01T06:12:05;0.22;;;0.15;;
28086;SDS011;15392;48.912;8.380;2023-04-01T06:15:37;0.10;;;0.10;;
28086;SDS011;15392;48.912;8.380;2023-04-01T06:38:29;0.30;;;0.30;;
28086;SDS011;15392;48.912;8.380;2023-04-01T06:41:25;0.20;;;0.20;;
28086;SDS011;15392;48.912;8.380;2023-04-01T06:47:27;0.20;;;0.20;;
28086;SDS011;15392;48.912;8.380;2023-04-01T06:53:11;0.20;;;0.20;;
28086;SDS011;15392;48.912;8.380;2023-04-01T06:56:01;0.20;;;0.20;;
28086;SDS011;15392;48.912;8.380;2023-04-01T06:58:41;0.20;;;0.20;;
28086;SDS011;15392;48.912;8.380;2023-04-01T07:01:20;0.30;;;0.20;;
28086;SDS011;15392;48.912;8.380;2023-04-01T07:04:13;0.47;;;0.40;;
28086;SDS011;15392;48.912;8.380;2023-04-01T07:06:47;0.15;;;0.15;;
28086;SDS011;15392;48.912;8.380;2023-04-01T07:09:31;0.40;;;0.30;;
28086;SDS011;15392;48.912;8.380;2023-04-01T07:12:01;0.52;;;0.35;;
28086;SDS011;15392;48.912;8.380;2023-04-01T07:14:37;0.40;;;0.40;;
28086;SDS011;15392;48.912;8.380;2023-04-01T07:22:47;0.50;;;0.30;;
28086;SDS011;15392;48.912;8.380;2023-04-01T07:25:17;0.32;;;0.20;;
28086;SDS011;15392;48.912;8.380;2023-04-01T07:28:17;0.20;;;0.20;;
28086;SDS011;15392;48.912;8.380;2023-04-01T07:33:41;2.03;;;1.92;;
28086;SDS011;15392;48.912;8.380;2023-04-01T07:39:43;1.38;;;1.30;;
28086;SDS011;15392;48.912;8.380;2023-04-01T07:45:28;2.35;;;2.25;;
28086;SDS011;15392;48.912;8.380;2023-04-01T07:48:10;3.45;;;3.25;;
28086;SDS011;15392;48.912;8.380;2023-04-01T08:04:40;1.38;;;1.38;;
28086;SDS011;15392;48.912;8.380;2023-04-01T08:10:25;0.40;;;0.40;;
28086;SDS011;15392;48.912;8.380;2023-04-01T08:19:47;0.30;;;0.30;;
28086;SDS011;15392;48.912;8.380;2023-04-01T08:22:45;0.50;;;0.50;;
28086;SDS011;15392;48.912;8.380;2023-04-01T08:25:27;0.60;;;0.60;;
28086;SDS011;15392;48.912;8.380;2023-04-01T08:28:29;0.50;;;0.50;;
28086;SDS011;15392;48.912;8.380;2023-04-01T08:30:59;0.30;;;0.30;;
28086;SDS011;15392;48.912;8.380;2023-04-01T08:33:41;1.35;;;1.35;;
28086;SDS011;15392;48.912;8.380;2023-04-01T08:36:12;0.85;;;0.85;;
28086;SDS011;15392;48.912;8.380;2023-04-01T08:38:44;5.07;;;4.72;;
28086;SDS011;15392;48.912;8.380;2023-04-01T08:41:21;5.45;;;5.07;;
28086;SDS011;15392;48.912;8.380;2023-04-01T08:53:50;1.85;;;1.75;;
28086;SDS011;15392;48.912;8.380;2023-04-01T09:24:14;0.35;;;0.20;;
28086;SDS011;15392;48.912;8.380;2023-04-01T09:35:52;0.10;;;0.10;;
28086;SDS011;15392;48.912;8.380;2023-04-01T09:49:55;0.10;;;0.10;;
28086;SDS011;15392;48.912;8.380;2023-04-01T09:52:38;0.05;;;0.05;;
28086;SDS011;15392;48.912;8.380;2023-04-01T09:55:19;0.20;;;0.20;;
28086;SDS011;15392;48.912;8.380;2023-04-01T10:16:15;0.10;;;0.10;;
28086;SDS011;15392;48.912;8.380;2023-04-01T10:28:35;0.22;;;0.20;;
28086;SDS011;15392;48.912;8.380;2023-04-01T11:01:02;0.20;;;0.10;;
28086;SDS011;15392;48.912;8.380;2023-04-01T11:07:11;0.20;;;0.20;;
28086;SDS011;15392;48.912;8.380;2023-04-01T11:10:24;0.00;;;0.00;;
28086;SDS011;15392;48.912;8.380;2023-04-01T11:27:33;0.77;;;0.77;;
28086;SDS011;15392;48.912;8.380;2023-04-01T11:33:38;0.75;;;0.30;;
28086;SDS011;15392;48.912;8.380;2023-04-01T11:45:35;0.28;;;0.28;;
28086;SDS011;15392;48.912;8.380;2023-04-01T11:48:09;0.20;;;0.20;;
28086;SDS011;15392;48.912;8.380;2023-04-01T12:06:43;0.13;;;0.13;;
28086;SDS011;15392;48.912;8.380;2023-04-01T12:18:22;0.00;;;0.00;;
28086;SDS011;15392;48.912;8.380;2023-04-01T12:25:07;0.13;;;0.13;;
28086;SDS011;15392;48.912;8.380;2023-04-01T12:28:10;0.10;;;0.10;;
28086;SDS011;15392;48.912;8.380;2023-04-01T12:37:06;0.20;;;0.20;;
28086;SDS011;15392;48.912;8.380;2023-04-01T12:46:01;0.10;;;0.10;;
28086;SDS011;15392;48.912;8.380;2023-04-01T13:14:09;0.20;;;0.20;;
28086;SDS011;15392;48.912;8.380;2023-04-01T13:19:44;0.20;;;0.20;;
28086;SDS011;15392;48.912;8.380;2023-04-01T13:22:41;0.10;;;0.10;;
28086;SDS011;15392;48.912;8.380;2023-04-01T13:25:32;0.20;;;0.10;;
28086;SDS011;15392;48.912;8.380;2023-04-01T13:34:00;0.57;;;0.08;;
28086;SDS011;15392;48.912;8.380;2023-04-01T13:39:45;0.20;;;0.20;;
28086;SDS011;15392;48.912;8.380;2023-04-01T13:55:09;0.43;;;0.43;;
28086;SDS011;15392;48.912;8.380;2023-04-01T13:58:02;0.30;;;0.30;;
28086;SDS011;15392;48.912;8.380;2023-04-01T14:00:54;0.20;;;0.20;;
28086;SDS011;15392;48.912;8.380;2023-04-01T14:03:59;0.10;;;0.10;;
28086;SDS011;15392;48.912;8.380;2023-04-01T14:09:59;0.47;;;0.47;;
28086;SDS011;15392;48.912;8.380;2023-04-01T14:13:02;0.80;;;0.80;;
28086;SDS011;15392;48.912;8.380;2023-04-01T14:18:45;0.50;;;0.50;;
28086;SDS011;15392;48.912;8.380;2023-04-01T14:21:39;0.50;;;0.50;;
28086;SDS011;15392;48.912;8.380;2023-04-01T14:26:56;1.88;;;1.77;;
28086;SDS011;15392;48.912;8.380;2023-04-01T14:32:16;0.80;;;0.80;;
28086;SDS011;15392;48.912;8.380;2023-04-01T14:50:40;0.60;;;0.60;;
28086;SDS011;15392;48.912;8.380;2023-04-01T14:55:34;0.73;;;0.73;;
28086;SDS011;15392;48.912;8.380;2023-04-01T15:06:45;0.20;;;0.20;;
28086;SDS011;15392;48.912;8.380;2023-04-01T15:24:24;0.70;;;0.70;;
28086;SDS011;15392;48.912;8.380;2023-04-01T15:27:20;0.50;;;0.50;;
28086;SDS011;15392;48.912;8.380;2023-04-01T15:41:56;0.43;;;0.43;;
28086;SDS011;15392;48.912;8.380;2023-04-01T15:49:52;0.10;;;0.10;;
28086;SDS011;15392;48.912;8.380;2023-04-01T15:52:41;0.45;;;0.45;;
28086;SDS011;15392;48.912;8.380;2023-04-01T15:55:47;0.50;;;0.50;;
28086;SDS011;15392;48.912;8.380;2023-04-01T16:13:03;0.30;;;0.30;;
28086;SDS011;15392;48.912;8.380;2023-04-01T16:16:21;1.35;;;1.20;;
28086;SDS011;15392;48.912;8.380;2023-04-01T16:22:53;0.68;;;0.68;;
28086;SDS011;15392;48.912;8.380;2023-04-01T16:36:43;0.60;;;0.60;;
28086;SDS011;15392;48.912;8.380;2023-04-01T16:42:14;0.70;;;0.70;;
28086;SDS011;15392;48.912;8.380;2023-04-01T16:45:02;0.98;;;0.98;;
28086;SDS011;15392;48.912;8.380;2023-04-01T16:50:55;1.73;;;1.63;;
28086;SDS011;15392;48.912;8.380;2023-04-01T16:53:30;1.13;;;1.13;;
28086;SDS011;15392;48.912;8.380;2023-04-01T16:56:21;1.55;;;1.45;;
28086;SDS011;15392;48.912;8.380;2023-04-01T16:59:03;0.90;;;0.90;;
28086;SDS011;15392;48.912;8.380;2023-04-01T17:04:36;0.60;;;0.60;;
28086;SDS011;15392;48.912;8.380;2023-04-01T17:13:59;0.30;;;0.30;;
28086;SDS011;15392;48.912;8.380;2023-04-01T17:16:49;0.30;;;0.30;;
28086;SDS011;15392;48.912;8.380;2023-04-01T17:30:34;0.73;;;0.73;;
28086;SDS011;15392;48.912;8.380;2023-04-01T17:36:02;2.05;;;1.95;;
28086;SDS011;15392;48.912;8.380;2023-04-01T17:42:19;0.73;;;0.73;;
28086;SDS011;15392;48.912;8.380;2023-04-01T17:56:49;0.17;;;0.17;;
28086;SDS011;15392;48.912;8.380;2023-04-01T17:59:39;0.38;;;0.35;;
28086;SDS011;15392;48.912;8.380;2023-04-01T18:08:33;0.30;;;0.30;;
28086;SDS011;15392;48.912;8.380;2023-04-01T18:11:28;0.20;;;0.20;;
28086;SDS011;15392;48.912;8.380;2023-04-01T18:17:08;0.30;;;0.30;;
28086;SDS011;15392;48.912;8.380;2023-04-01T18:25:50;0.20;;;0.20;;
28086;SDS011;15392;48.912;8.380;2023-04-01T18:28:34;0.30;;;0.30;;
28086;SDS011;15392;48.912;8.380;2023-04-01T18:42:23;0.30;;;0.30;;
28086;SDS011;15392;48.912;8.380;2023-04-01T18:45:53;0.20;;;0.17;;
28086;SDS011;15392;48.912;8.380;2023-04-01T18:48:36;0.50;;;0.32;;
28086;SDS011;15392;48.912;8.380;2023-04-01T18:59:15;0.10;;;0.10;;
28086;SDS011;15392;48.912;8.380;2023-04-01T19:07:50;0.30;;;0.30;;
28086;SDS011;15392;48.912;8.380;2023-04-01T19:28:26;0.77;;;0.77;;
28086;SDS011;15392;48.912;8.380;2023-04-01T19:34:16;0.40;;;0.40;;
28086;SDS011;15392;48.912;8.380;2023-04-01T19:43:21;1.00;;;1.00;;
28086;SDS011;15392;48.912;8.380;2023-04-01T19:46:28;0.60;;;0.60;;
28086;SDS011;15392;48.912;8.380;2023-04-01T19:54:51;0.40;;;0.40;;
28086;SDS011;15392;48.912;8.380;2023-04-01T20:08:44;0.40;;;0.40;;
28086;SDS011;15392;48.912;8.380;2023-04-01T20:11:37;0.35;;;0.35;;
28086;SDS011;15392;48.912;8.380;2023-04-01T20:14:40;0.22;;;0.22;;
28086;SDS011;15392;48.912;8.380;2023-04-01T20:25:16;0.40;;;0.40;;
28086;SDS011;15392;48.912;8.380;2023-04-01T20:27:47;0.52;;;0.45;;
28086;SDS011;15392;48.912;8.380;2023-04-01T20:39:01;0.40;;;0.40;;
28086;SDS011;15392;48.912;8.380;2023-04-01T20:47:16;0.30;;;0.30;;
28086;SDS011;15392;48.912;8.380;2023-04-01T20:53:28;0.20;;;0.20;;
28086;SDS011;15392;48.912;8.380;2023-04-01T20:56:23;0.20;;;0.20;;
28086;SDS011;15392;48.912;8.380;2023-04-01T20:59:28;0.30;;;0.28;;
28086;SDS011;15392;48.912;8.380;2023-04-01T21:08:28;0.30;;;0.30;;
28086;SDS011;15392;48.912;8.380;2023-04-01T21:11:43;0.28;;;0.28;;
28086;SDS011;15392;48.912;8.380;2023-04-01T21:16:07;0.30;;;0.30;;
28086;SDS011;15392;48.912;8.380;2023-04-01T21:18:20;0.50;;;0.50;;
28086;SDS011;15392;48.912;8.380;2023-04-01T21:41:54;0.20;;;0.20;;
28086;SDS011;15392;48.912;8.380;2023-04-01T21:53:19;0.13;;;0.13;;
28086;SDS011;15392;48.912;8.380;2023-04-01T22:02:54;0.30;;;0.30;;
28086;SDS011;15392;48.912;8.380;2023-04-01T22:05:55;0.30;;;0.30;;
28086;SDS011;15392;48.912;8.380;2023-04-01T22:08:32;0.22;;;0.22;;
28086;SDS011;15392;48.912;8.380;2023-04-01T22:12:07;0.10;;;0.10;;
28086;SDS011;15392;48.912;8.380;2023-04-01T22:17:35;0.25;;;0.25;;
28086;SDS011;15392;48.912;8.380;2023-04-01T22:23:24;0.30;;;0.30;;
28086;SDS011;15392;48.912;8.380;2023-04-01T22:31:54;0.20;;;0.20;;
28086;SDS011;15392;48.912;8.380;2023-04-01T22:37:49;0.30;;;0.30;;
28086;SDS011;15392;48.912;8.380;2023-04-01T22:40:41;0.15;;;0.15;;
28086;SDS011;15392;48.912;8.380;2023-04-01T22:43:25;0.22;;;0.22;;
28086;SDS011;15392;48.912;8.380;2023-04-01T22:49:02;0.20;;;0.20;;
28086;SDS011;15392;48.912;8.380;2023-04-01T22:51:40;0.10;;;0.10;;
28086;SDS011;15392;48.912;8.380;2023-04-01T22:54:42;0.15;;;0.15;;
28086;SDS011;15392;48.912;8.380;2023-04-01T23:00:14;0.30;;;0.30;;
28086;SDS011;15392;48.912;8.380;2023-04-01T23:02:47;0.35;;;0.35;;
28086;SDS011;15392;48.912;8.380;2023-04-01T23:05:39;0.50;;;0.20;;
28086;SDS011;15392;48.912;8.380;2023-04-01T23:08:30;0.10;;;0.10;;
28086;SDS011;15392;48.912;8.380;2023-04-01T23:13:44;0.20;;;0.20;;
28086;SDS011;15392;48.912;8.380;2023-04-01T23:16:19;0.00;;;0.00;;
28086;SDS011;15392;48.912;8.380;2023-04-01T23:24:32;0.00;;;0.00;;
28086;SDS011;15392;48.912;8.380;2023-04-01T23:29:41;0.10;;;0.10;;
28086;SDS011;15392;48.912;8.380;2023-04-01T23:32:17;0.20;;;0.20;;
28086;SDS011;15392;48.912;8.380;2023-04-01T23:34:48;0.10;;;0.10;;
28086;SDS011;15392;48.912;8.380;2023-04-01T23:37:21;0.20;;;0.20;;
28086;SDS011;15392;48.912;8.380;2023-04-01T23:39:49;0.10;;;0.10;;
28086;SDS011;15392;48.912;8.380;2023-04-01T23:42:25;0.10;;;0.10;;
28086;SDS011;15392;48.912;8.380;2023-04-01T23:44:56;0.10;;;0.10;;
28086;SDS011;15392;48.912;8.380;2023-04-01T23:47:29;0.10;;;0.10;;
28086;SDS011;15392;48.912;8.380;2023-04-01T23:50:03;0.10;;;0.10;;
28086;SDS011;15392;48.912;8.380;2023-04-01T23:52:40;0.43;;;0.10;;
28086;SDS011;15392;48.912;8.380;2023-04-01T23:55:13;0.20;;;0.20;;
28086;SDS011;15392;48.912;8.380;2023-04-01T23:57:43;0.17;;;0.17;;
